sensor_id;sensor_type;location;lat;lon;timestamp;pressure;altitude;pressure_sealevel;temperature
29701;BMP280;57917;51.380;-0.176;2023-08-17T00:04:41;101786.13;;;18.22
29701;BMP280;57917;51.380;-0.176;2023-08-17T00:10:28;101786.31;;;18.39
29701;BMP280;57917;51.380;-0.176;2023-08-17T00:16:16;101785.66;;;18.20
29701;BMP280;57917;51.380;-0.176;2023-08-17T00:22:07;101789.53;;;18.14
29701;BMP280;57917;51.380;-0.176;2023-08-17T00:27:54;101785.38;;;18.08
29701;BMP280;57917;51.380;-0.176;2023-08-17T00:33:41;101786.09;;;18.00
29701;BMP280;57917;51.380;-0.176;2023-08-17T00:39:28;101792.50;;;17.99
29701;BMP280;57917;51.380;-0.176;2023-08-17T00:45:18;101796.91;;;17.68
29701;BMP280;57917;51.380;-0.176;2023-08-17T00:51:05;101797.19;;;17.39
29701;BMP280;57917;51.380;-0.176;2023-08-17T00:56:52;101796.41;;;17.66
29701;BMP280;57917;51.380;-0.176;2023-08-17T01:02:41;101789.97;;;17.80
29701;BMP280;57917;51.380;-0.176;2023-08-17T01:08:29;101790.63;;;17.99
29701;BMP280;57917;51.380;-0.176;2023-08-17T01:20:13;101773.41;;;17.78
29701;BMP280;57917;51.380;-0.176;2023-08-17T01:26:03;101787.81;;;17.69
29701;BMP280;57917;51.380;-0.176;2023-08-17T01:37:50;101773.97;;;17.35
29701;BMP280;57917;51.380;-0.176;2023-08-17T01:43:37;101773.94;;;17.21
29701;BMP280;57917;51.380;-0.176;2023-08-17T01:49:24;101768.75;;;17.11
29701;BMP280;57917;51.380;-0.176;2023-08-17T01:55:12;101765.00;;;17.26
29701;BMP280;57917;51.380;-0.176;2023-08-17T02:00:58;101773.78;;;17.45
29701;BMP280;57917;51.380;-0.176;2023-08-17T02:06:46;101765.00;;;17.26
29701;BMP280;57917;51.380;-0.176;2023-08-17T02:12:33;101780.81;;;17.27
29701;BMP280;57917;51.380;-0.176;2023-08-17T02:18:20;101766.13;;;17.38
29701;BMP280;57917;51.380;-0.176;2023-08-17T02:24:07;101765.47;;;17.46
29701;BMP280;57917;51.380;-0.176;2023-08-17T02:29:56;101768.03;;;17.51
29701;BMP280;57917;51.380;-0.176;2023-08-17T02:35:48;101767.41;;;17.41
29701;BMP280;57917;51.380;-0.176;2023-08-17T02:41:35;101772.88;;;17.36
29701;BMP280;57917;51.380;-0.176;2023-08-17T02:47:22;101769.91;;;17.51
29701;BMP280;57917;51.380;-0.176;2023-08-17T02:53:09;101758.91;;;17.66
29701;BMP280;57917;51.380;-0.176;2023-08-17T02:58:55;101761.28;;;17.67
29701;BMP280;57917;51.380;-0.176;2023-08-17T03:04:42;101760.78;;;17.79
29701;BMP280;57917;51.380;-0.176;2023-08-17T03:10:30;101766.06;;;17.70
29701;BMP280;57917;51.380;-0.176;2023-08-17T03:16:18;101757.13;;;17.75
29701;BMP280;57917;51.380;-0.176;2023-08-17T03:22:04;101760.09;;;17.60
29701;BMP280;57917;51.380;-0.176;2023-08-17T03:27:51;101765.56;;;17.68
29701;BMP280;57917;51.380;-0.176;2023-08-17T03:33:39;101758.09;;;17.79
29701;BMP280;57917;51.380;-0.176;2023-08-17T03:39:28;101754.78;;;17.73
29701;BMP280;57917;51.380;-0.176;2023-08-17T03:45:14;101762.44;;;17.88
29701;BMP280;57917;51.380;-0.176;2023-08-17T03:51:02;101761.00;;;17.96
29701;BMP280;57917;51.380;-0.176;2023-08-17T03:56:50;101749.38;;;18.00
29701;BMP280;57917;51.380;-0.176;2023-08-17T04:02:40;101750.75;;;17.98
29701;BMP280;57917;51.380;-0.176;2023-08-17T04:08:31;101757.94;;;17.75
29701;BMP280;57917;51.380;-0.176;2023-08-17T04:14:18;101749.38;;;18.00
29701;BMP280;57917;51.380;-0.176;2023-08-17T04:20:07;101736.38;;;17.80
29701;BMP280;57917;51.380;-0.176;2023-08-17T04:25:54;101753.72;;;17.96
29701;BMP280;57917;51.380;-0.176;2023-08-17T04:31:41;101745.91;;;17.86
29701;BMP280;57917;51.380;-0.176;2023-08-17T04:37:29;101749.47;;;17.82
29701;BMP280;57917;51.380;-0.176;2023-08-17T04:43:16;101749.56;;;17.90
29701;BMP280;57917;51.380;-0.176;2023-08-17T04:49:05;101757.22;;;17.97
29701;BMP280;57917;51.380;-0.176;2023-08-17T04:54:52;101756.09;;;17.98
29701;BMP280;57917;51.380;-0.176;2023-08-17T05:00:39;101763.84;;;17.99
29701;BMP280;57917;51.380;-0.176;2023-08-17T05:06:30;101762.22;;;18.12
29701;BMP280;57917;51.380;-0.176;2023-08-17T05:12:17;101761.16;;;18.35
29701;BMP280;57917;51.380;-0.176;2023-08-17T05:18:07;101753.63;;;18.37
29701;BMP280;57917;51.380;-0.176;2023-08-17T05:23:58;101748.03;;;18.47
29701;BMP280;57917;51.380;-0.176;2023-08-17T05:29:48;101747.63;;;18.40
29701;BMP280;57917;51.380;-0.176;2023-08-17T05:35:37;101765.16;;;18.37
29701;BMP280;57917;51.380;-0.176;2023-08-17T05:41:24;101754.97;;;18.70
29701;BMP280;57917;51.380;-0.176;2023-08-17T05:47:11;101755.94;;;18.74
29701;BMP280;57917;51.380;-0.176;2023-08-17T05:53:00;101760.72;;;18.77
29701;BMP280;57917;51.380;-0.176;2023-08-17T05:58:49;101749.63;;;19.01
29701;BMP280;57917;51.380;-0.176;2023-08-17T06:04:36;101746.81;;;19.06
29701;BMP280;57917;51.380;-0.176;2023-08-17T06:10:23;101741.88;;;18.99
29701;BMP280;57917;51.380;-0.176;2023-08-17T06:16:12;101751.28;;;19.10
29701;BMP280;57917;51.380;-0.176;2023-08-17T06:21:59;101748.88;;;19.09
29701;BMP280;57917;51.380;-0.176;2023-08-17T06:27:49;101735.53;;;20.24
29701;BMP280;57917;51.380;-0.176;2023-08-17T06:33:36;101721.38;;;20.61
29701;BMP280;57917;51.380;-0.176;2023-08-17T06:39:22;101706.38;;;20.89
29701;BMP280;57917;51.380;-0.176;2023-08-17T06:45:09;101713.00;;;20.46
29701;BMP280;57917;51.380;-0.176;2023-08-17T06:50:57;101712.00;;;20.76
29701;BMP280;57917;51.380;-0.176;2023-08-17T06:56:44;101712.78;;;21.14
29701;BMP280;57917;51.380;-0.176;2023-08-17T07:02:33;101699.63;;;21.41
29701;BMP280;57917;51.380;-0.176;2023-08-17T07:08:39;101718.41;;;21.00
29701;BMP280;57917;51.380;-0.176;2023-08-17T07:14:27;101717.59;;;21.29
29701;BMP280;57917;51.380;-0.176;2023-08-17T07:20:14;101715.50;;;21.05
29701;BMP280;57917;51.380;-0.176;2023-08-17T07:26:03;101718.84;;;21.02
29701;BMP280;57917;51.380;-0.176;2023-08-17T07:31:50;101727.94;;;21.18
29701;BMP280;57917;51.380;-0.176;2023-08-17T07:37:41;101739.72;;;21.14
29701;BMP280;57917;51.380;-0.176;2023-08-17T07:43:31;101739.84;;;20.88
29701;BMP280;57917;51.380;-0.176;2023-08-17T07:49:18;101739.94;;;21.00
29701;BMP280;57917;51.380;-0.176;2023-08-17T07:55:27;101764.50;;;20.99
29701;BMP280;57917;51.380;-0.176;2023-08-17T08:01:17;101763.72;;;20.81
29701;BMP280;57917;51.380;-0.176;2023-08-17T08:07:06;101752.91;;;20.98
29701;BMP280;57917;51.380;-0.176;2023-08-17T08:12:52;101757.69;;;20.93
29701;BMP280;57917;51.380;-0.176;2023-08-17T08:18:39;101744.75;;;20.86
29701;BMP280;57917;51.380;-0.176;2023-08-17T08:24:26;101754.34;;;21.04
29701;BMP280;57917;51.380;-0.176;2023-08-17T08:30:26;101736.84;;;21.19
29701;BMP280;57917;51.380;-0.176;2023-08-17T08:36:13;101735.75;;;21.90
29701;BMP280;57917;51.380;-0.176;2023-08-17T08:42:01;101709.78;;;22.63
29701;BMP280;57917;51.380;-0.176;2023-08-17T08:47:47;101707.00;;;21.73
29701;BMP280;57917;51.380;-0.176;2023-08-17T08:53:38;101712.50;;;21.97
29701;BMP280;57917;51.380;-0.176;2023-08-17T08:59:27;101703.19;;;21.74
29701;BMP280;57917;51.380;-0.176;2023-08-17T09:05:15;101686.84;;;21.59
29701;BMP280;57917;51.380;-0.176;2023-08-17T09:11:02;101697.06;;;21.45
29701;BMP280;57917;51.380;-0.176;2023-08-17T09:16:50;101685.84;;;22.41
29701;BMP280;57917;51.380;-0.176;2023-08-17T09:22:41;101666.56;;;23.11
29701;BMP280;57917;51.380;-0.176;2023-08-17T09:28:28;101674.09;;;23.57
29701;BMP280;57917;51.380;-0.176;2023-08-17T09:34:19;101656.28;;;23.56
29701;BMP280;57917;51.380;-0.176;2023-08-17T09:40:09;101651.56;;;24.42
29701;BMP280;57917;51.380;-0.176;2023-08-17T09:46:00;101671.31;;;24.12
29701;BMP280;57917;51.380;-0.176;2023-08-17T09:51:49;101672.38;;;23.80
29701;BMP280;57917;51.380;-0.176;2023-08-17T09:57:36;101664.13;;;23.88
29701;BMP280;57917;51.380;-0.176;2023-08-17T10:03:27;101654.97;;;23.93
29701;BMP280;57917;51.380;-0.176;2023-08-17T10:09:22;101667.63;;;23.61
29701;BMP280;57917;51.380;-0.176;2023-08-17T10:15:11;101674.41;;;23.55
29701;BMP280;57917;51.380;-0.176;2023-08-17T10:21:13;101672.44;;;24.11
29701;BMP280;57917;51.380;-0.176;2023-08-17T10:27:05;101657.16;;;23.60
29701;BMP280;57917;51.380;-0.176;2023-08-17T10:32:53;101670.91;;;24.41
29701;BMP280;57917;51.380;-0.176;2023-08-17T10:38:40;101661.06;;;24.83
29701;BMP280;57917;51.380;-0.176;2023-08-17T10:44:48;101659.16;;;24.68
29701;BMP280;57917;51.380;-0.176;2023-08-17T10:50:36;101677.31;;;24.83
29701;BMP280;57917;51.380;-0.176;2023-08-17T10:56:29;101666.69;;;24.93
29701;BMP280;57917;51.380;-0.176;2023-08-17T11:02:22;101674.03;;;24.43
29701;BMP280;57917;51.380;-0.176;2023-08-17T11:08:20;101670.25;;;24.63
29701;BMP280;57917;51.380;-0.176;2023-08-17T11:14:08;101677.94;;;24.14
29701;BMP280;57917;51.380;-0.176;2023-08-17T11:19:55;101667.06;;;24.26
29701;BMP280;57917;51.380;-0.176;2023-08-17T11:25:42;101678.84;;;24.84
29701;BMP280;57917;51.380;-0.176;2023-08-17T11:31:31;101661.28;;;24.28
29701;BMP280;57917;51.380;-0.176;2023-08-17T11:37:18;101660.97;;;23.71
29701;BMP280;57917;51.380;-0.176;2023-08-17T11:43:07;101655.66;;;24.67
29701;BMP280;57917;51.380;-0.176;2023-08-17T11:48:59;101659.78;;;24.96
29701;BMP280;57917;51.380;-0.176;2023-08-17T11:54:45;101658.66;;;24.97
29701;BMP280;57917;51.380;-0.176;2023-08-17T12:00:44;101642.22;;;24.90
29701;BMP280;57917;51.380;-0.176;2023-08-17T12:06:32;101623.22;;;24.52
29701;BMP280;57917;51.380;-0.176;2023-08-17T12:12:21;101605.69;;;24.15
29701;BMP280;57917;51.380;-0.176;2023-08-17T12:18:08;101599.06;;;24.12
29701;BMP280;57917;51.380;-0.176;2023-08-17T12:23:56;101588.09;;;24.55
29701;BMP280;57917;51.380;-0.176;2023-08-17T12:29:50;101585.88;;;24.11
29701;BMP280;57917;51.380;-0.176;2023-08-17T12:35:37;101600.47;;;24.06
29701;BMP280;57917;51.380;-0.176;2023-08-17T12:41:24;101632.66;;;24.77
29701;BMP280;57917;51.380;-0.176;2023-08-17T12:47:11;101617.22;;;24.27
29701;BMP280;57917;51.380;-0.176;2023-08-17T12:52:58;101632.13;;;24.06
29701;BMP280;57917;51.380;-0.176;2023-08-17T12:58:45;101619.88;;;23.38
29701;BMP280;57917;51.380;-0.176;2023-08-17T13:04:32;101599.28;;;23.76
29701;BMP280;57917;51.380;-0.176;2023-08-17T13:10:19;101595.41;;;23.62
29701;BMP280;57917;51.380;-0.176;2023-08-17T13:16:06;101592.78;;;23.50
29701;BMP280;57917;51.380;-0.176;2023-08-17T13:21:53;101588.84;;;24.06
29701;BMP280;57917;51.380;-0.176;2023-08-17T13:27:39;101582.66;;;23.47
29701;BMP280;57917;51.380;-0.176;2023-08-17T13:33:26;101563.06;;;23.65
29701;BMP280;57917;51.380;-0.176;2023-08-17T13:39:15;101541.53;;;23.69
29701;BMP280;57917;51.380;-0.176;2023-08-17T13:45:03;101542.88;;;23.75
29701;BMP280;57917;51.380;-0.176;2023-08-17T13:50:50;101543.66;;;23.05
29701;BMP280;57917;51.380;-0.176;2023-08-17T13:56:37;101561.50;;;23.80
29701;BMP280;57917;51.380;-0.176;2023-08-17T14:02:24;101550.97;;;23.75
29701;BMP280;57917;51.380;-0.176;2023-08-17T14:08:14;101545.59;;;23.32
29701;BMP280;57917;51.380;-0.176;2023-08-17T14:14:01;101536.38;;;23.48
29701;BMP280;57917;51.380;-0.176;2023-08-17T14:19:48;101530.13;;;23.32
29701;BMP280;57917;51.380;-0.176;2023-08-17T14:25:36;101523.47;;;22.75
29701;BMP280;57917;51.380;-0.176;2023-08-17T14:31:22;101522.13;;;22.81
29701;BMP280;57917;51.380;-0.176;2023-08-17T14:37:10;101530.91;;;23.17
29701;BMP280;57917;51.380;-0.176;2023-08-17T14:42:56;101518.94;;;23.18
29701;BMP280;57917;51.380;-0.176;2023-08-17T14:48:43;101508.53;;;23.48
29701;BMP280;57917;51.380;-0.176;2023-08-17T14:54:30;101514.06;;;23.24
29701;BMP280;57917;51.380;-0.176;2023-08-17T15:00:19;101503.44;;;22.88
29701;BMP280;57917;51.380;-0.176;2023-08-17T15:06:06;101499.03;;;22.83
29701;BMP280;57917;51.380;-0.176;2023-08-17T15:12:09;101497.63;;;23.01
29701;BMP280;57917;51.380;-0.176;2023-08-17T15:17:56;101489.38;;;23.10
29701;BMP280;57917;51.380;-0.176;2023-08-17T15:23:43;101481.22;;;23.22
29701;BMP280;57917;51.380;-0.176;2023-08-17T15:29:33;101478.00;;;22.89
29701;BMP280;57917;51.380;-0.176;2023-08-17T15:35:21;101467.41;;;22.96
29701;BMP280;57917;51.380;-0.176;2023-08-17T15:41:09;101485.13;;;23.09
29701;BMP280;57917;51.380;-0.176;2023-08-17T15:46:56;101481.31;;;22.98
29701;BMP280;57917;51.380;-0.176;2023-08-17T15:52:47;101465.47;;;22.69
29701;BMP280;57917;51.380;-0.176;2023-08-17T15:58:36;101472.63;;;22.77
29701;BMP280;57917;51.380;-0.176;2023-08-17T16:04:24;101473.69;;;22.48
29701;BMP280;57917;51.380;-0.176;2023-08-17T16:10:11;101470.28;;;22.24
29701;BMP280;57917;51.380;-0.176;2023-08-17T16:16:00;101467.75;;;22.55
29701;BMP280;57917;51.380;-0.176;2023-08-17T16:21:47;101461.94;;;22.29
29701;BMP280;57917;51.380;-0.176;2023-08-17T16:27:36;101455.56;;;22.21
29701;BMP280;57917;51.380;-0.176;2023-08-17T16:33:24;101477.78;;;22.18
29701;BMP280;57917;51.380;-0.176;2023-08-17T16:39:11;101475.22;;;22.09
29701;BMP280;57917;51.380;-0.176;2023-08-17T16:44:59;101484.41;;;21.84
29701;BMP280;57917;51.380;-0.176;2023-08-17T16:50:51;101474.09;;;21.86
29701;BMP280;57917;51.380;-0.176;2023-08-17T16:56:40;101474.41;;;21.85
29701;BMP280;57917;51.380;-0.176;2023-08-17T17:02:30;101479.50;;;21.98
29701;BMP280;57917;51.380;-0.176;2023-08-17T17:08:18;101478.63;;;21.50
29701;BMP280;57917;51.380;-0.176;2023-08-17T17:14:04;101474.22;;;21.45
29701;BMP280;57917;51.380;-0.176;2023-08-17T17:19:55;101468.34;;;21.31
29701;BMP280;57917;51.380;-0.176;2023-08-17T17:25:44;101471.81;;;21.20
29701;BMP280;57917;51.380;-0.176;2023-08-17T17:31:32;101482.66;;;20.91
29701;BMP280;57917;51.380;-0.176;2023-08-17T17:37:19;101472.28;;;21.01
29701;BMP280;57917;51.380;-0.176;2023-08-17T17:43:11;101484.59;;;21.02
29701;BMP280;57917;51.380;-0.176;2023-08-17T17:49:00;101468.59;;;20.85
29701;BMP280;57917;51.380;-0.176;2023-08-17T17:54:47;101472.25;;;20.81
29701;BMP280;57917;51.380;-0.176;2023-08-17T18:00:34;101455.47;;;20.63
29701;BMP280;57917;51.380;-0.176;2023-08-17T18:06:21;101468.56;;;20.65
29701;BMP280;57917;51.380;-0.176;2023-08-17T18:12:09;101475.22;;;20.67
29701;BMP280;57917;51.380;-0.176;2023-08-17T18:17:56;101470.88;;;20.54
29701;BMP280;57917;51.380;-0.176;2023-08-17T18:23:45;101469.56;;;20.31
29701;BMP280;57917;51.380;-0.176;2023-08-17T18:29:31;101489.59;;;20.13
29701;BMP280;57917;51.380;-0.176;2023-08-17T18:35:19;101504.38;;;19.90
29701;BMP280;57917;51.380;-0.176;2023-08-17T18:41:08;101489.75;;;19.71
29701;BMP280;57917;51.380;-0.176;2023-08-17T18:47:01;101488.16;;;19.61
29701;BMP280;57917;51.380;-0.176;2023-08-17T18:52:52;101491.53;;;19.50
29701;BMP280;57917;51.380;-0.176;2023-08-17T18:58:39;101497.66;;;19.50
29701;BMP280;57917;51.380;-0.176;2023-08-17T19:04:27;101501.47;;;19.32
29701;BMP280;57917;51.380;-0.176;2023-08-17T19:10:14;101500.03;;;19.35
29701;BMP280;57917;51.380;-0.176;2023-08-17T19:16:04;101524.19;;;19.09
29701;BMP280;57917;51.380;-0.176;2023-08-17T19:21:51;101517.25;;;19.00
29701;BMP280;57917;51.380;-0.176;2023-08-17T19:27:39;101510.63;;;19.14
29701;BMP280;57917;51.380;-0.176;2023-08-17T19:33:27;101515.03;;;19.27
29701;BMP280;57917;51.380;-0.176;2023-08-17T19:39:14;101514.25;;;19.10
29701;BMP280;57917;51.380;-0.176;2023-08-17T19:45:01;101521.34;;;18.97
29701;BMP280;57917;51.380;-0.176;2023-08-17T19:50:50;101543.78;;;19.18
29701;BMP280;57917;51.380;-0.176;2023-08-17T19:56:37;101526.72;;;19.06
29701;BMP280;57917;51.380;-0.176;2023-08-17T20:02:24;101518.53;;;19.02
29701;BMP280;57917;51.380;-0.176;2023-08-17T20:08:15;101517.06;;;18.96
29701;BMP280;57917;51.380;-0.176;2023-08-17T20:14:02;101524.63;;;18.86
29701;BMP280;57917;51.380;-0.176;2023-08-17T20:19:49;101528.75;;;18.83
29701;BMP280;57917;51.380;-0.176;2023-08-17T20:25:36;101541.78;;;18.76
29701;BMP280;57917;51.380;-0.176;2023-08-17T20:31:23;101540.88;;;18.81
29701;BMP280;57917;51.380;-0.176;2023-08-17T20:37:10;101534.56;;;18.85
29701;BMP280;57917;51.380;-0.176;2023-08-17T20:42:57;101526.50;;;18.77
29701;BMP280;57917;51.380;-0.176;2023-08-17T20:48:43;101523.50;;;18.78
29701;BMP280;57917;51.380;-0.176;2023-08-17T20:54:31;101522.19;;;18.67
29701;BMP280;57917;51.380;-0.176;2023-08-17T21:00:19;101517.66;;;18.76
29701;BMP280;57917;51.380;-0.176;2023-08-17T21:06:07;101505.84;;;18.77
29701;BMP280;57917;51.380;-0.176;2023-08-17T21:11:56;101512.47;;;18.88
29701;BMP280;57917;51.380;-0.176;2023-08-17T21:17:45;101512.78;;;18.78
29701;BMP280;57917;51.380;-0.176;2023-08-17T21:23:32;101496.38;;;18.88
29701;BMP280;57917;51.380;-0.176;2023-08-17T21:29:20;101501.59;;;18.85
29701;BMP280;57917;51.380;-0.176;2023-08-17T21:35:09;101484.88;;;19.05
29701;BMP280;57917;51.380;-0.176;2023-08-17T21:41:02;101486.78;;;18.96
29701;BMP280;57917;51.380;-0.176;2023-08-17T21:46:52;101495.25;;;18.81
29701;BMP280;57917;51.380;-0.176;2023-08-17T21:52:41;101494.47;;;18.80
29701;BMP280;57917;51.380;-0.176;2023-08-17T21:58:28;101497.53;;;19.04
29701;BMP280;57917;51.380;-0.176;2023-08-17T22:04:16;101482.19;;;18.96
29701;BMP280;57917;51.380;-0.176;2023-08-17T22:10:07;101492.75;;;18.84
29701;BMP280;57917;51.380;-0.176;2023-08-17T22:15:55;101484.38;;;18.94
29701;BMP280;57917;51.380;-0.176;2023-08-17T22:21:45;101481.88;;;18.89
29701;BMP280;57917;51.380;-0.176;2023-08-17T22:27:31;101473.16;;;18.84
29701;BMP280;57917;51.380;-0.176;2023-08-17T22:33:20;101476.19;;;18.91
29701;BMP280;57917;51.380;-0.176;2023-08-17T22:39:07;101476.81;;;18.79
29701;BMP280;57917;51.380;-0.176;2023-08-17T22:44:56;101470.38;;;18.97
29701;BMP280;57917;51.380;-0.176;2023-08-17T22:50:43;101461.03;;;19.03
29701;BMP280;57917;51.380;-0.176;2023-08-17T22:56:31;101446.66;;;18.91
29701;BMP280;57917;51.380;-0.176;2023-08-17T23:02:20;101470.50;;;18.92
29701;BMP280;57917;51.380;-0.176;2023-08-17T23:08:06;101455.84;;;19.07
29701;BMP280;57917;51.380;-0.176;2023-08-17T23:13:54;101458.34;;;18.95
29701;BMP280;57917;51.380;-0.176;2023-08-17T23:19:52;101467.69;;;18.97
29701;BMP280;57917;51.380;-0.176;2023-08-17T23:25:42;101462.63;;;18.87
29701;BMP280;57917;51.380;-0.176;2023-08-17T23:31:30;101460.25;;;19.03
29701;BMP280;57917;51.380;-0.176;2023-08-17T23:37:16;101458.69;;;19.02
29701;BMP280;57917;51.380;-0.176;2023-08-17T23:43:08;101442.09;;;18.91
29701;BMP280;57917;51.380;-0.176;2023-08-17T23:48:59;101444.94;;;18.95
29701;BMP280;57917;51.380;-0.176;2023-08-17T23:54:47;101452.97;;;19.12
